Terminal Aerodrome Forecast
Issued by NWS Burlington, VT

Home | Current Version | Previous Version | Text Only | Print | Product List | Glossary On
Versions: 1 2 3 4 5 6 7 8 9 10 11 12 13 14 15 16 17 18 19 20 21 22 23 24
281
FTUS41 KBTV 252340
TAFBTV
TAF
KBTV 252340Z 2600/2624 VRB04KT P6SM VCSH SCT080
     FM260400 20006KT P6SM SCT200
     FM261200 22007KT P6SM SCT050
     FM261600 30008KT P6SM VCSH BKN050=

USA.gov is the U.S. government's official web portal to all federal, state and local government web resources and services.